createdAt,value
2022-10-05T00:01:08.930Z,78.50
2022-10-05T00:03:38.870Z,78.54
2022-10-05T00:06:10.424Z,79.08
2022-10-05T00:08:41.060Z,78.55
2022-10-05T00:11:13.627Z,78.81
2022-10-05T00:13:43.140Z,79.18
2022-10-05T00:16:17.644Z,78.94
2022-10-05T00:18:49.988Z,78.46
2022-10-05T00:21:21.704Z,78.63
2022-10-05T00:23:52.651Z,79.47
2022-10-05T00:26:24.476Z,79.49
2022-10-05T00:28:54.613Z,78.96
2022-10-05T00:31:25.652Z,78.39
2022-10-05T00:33:55.872Z,77.88
2022-10-05T00:36:26.064Z,79.30
2022-10-05T00:38:56.418Z,79.66
2022-10-05T00:41:35.277Z,79.64
2022-10-05T00:44:32.192Z,79.60
2022-10-05T00:47:14.676Z,78.66
2022-10-05T00:50:02.994Z,78.25
2022-10-05T00:52:39.725Z,78.67
2022-10-05T00:55:22.183Z,78.38
2022-10-05T00:58:03.905Z,79.14
2022-10-05T01:00:38.813Z,79.37
2022-10-05T01:03:16.939Z,79.96
2022-10-05T01:05:59.197Z,79.82
2022-10-05T01:08:35.973Z,79.23
2022-10-05T01:11:14.680Z,79.20
2022-10-05T01:13:56.735Z,79.73
2022-10-05T01:16:31.929Z,78.37
2022-10-05T01:19:11.658Z,78.60
2022-10-05T01:21:47.328Z,79.20
2022-10-05T01:24:41.085Z,79.17
2022-10-05T01:27:46.839Z,79.52
2022-10-05T01:30:20.052Z,78.65
2022-10-05T01:32:55.026Z,78.79
2022-10-05T01:35:35.929Z,79.50
2022-10-05T01:38:30.549Z,79.83
2022-10-05T01:41:13.491Z,78.96
2022-10-05T01:43:48.136Z,79.47
2022-10-05T01:46:26.846Z,79.25
2022-10-05T01:49:17.599Z,79.65
2022-10-05T01:51:57.662Z,78.89
2022-10-05T01:54:37.764Z,79.74
2022-10-05T01:57:16.686Z,79.15
2022-10-05T01:59:59.972Z,78.66
2022-10-05T02:02:33.070Z,79.57
2022-10-05T02:05:09.531Z,78.35
2022-10-05T02:07:43.620Z,79.07
2022-10-05T02:10:22.099Z,79.28
2022-10-05T02:12:56.257Z,79.06
2022-10-05T02:15:30.774Z,78.56
2022-10-05T02:18:07.855Z,78.38
2022-10-05T02:20:41.226Z,78.89
2022-10-05T02:23:15.353Z,78.64
2022-10-05T02:25:48.353Z,79.29
2022-10-05T02:28:23.583Z,80.57
2022-10-05T02:31:00.106Z,81.78
2022-10-05T02:33:31.940Z,82.75
2022-10-05T02:36:14.155Z,82.57
2022-10-05T02:38:56.400Z,83.31
2022-10-05T02:41:39.542Z,83.45
2022-10-05T02:44:20.719Z,83.82
2022-10-05T02:46:57.871Z,83.79
2022-10-05T02:49:39.536Z,83.10
2022-10-05T02:52:15.055Z,81.53
2022-10-05T02:54:54.361Z,82.22
2022-10-05T02:57:29.869Z,82.91
2022-10-05T03:00:05.718Z,81.85
2022-10-05T03:02:41.976Z,82.47
2022-10-05T03:05:20.795Z,82.99
2022-10-05T03:07:56.800Z,83.10
2022-10-05T03:10:35.257Z,83.05
2022-10-05T03:13:10.633Z,82.67
2022-10-05T03:15:55.824Z,82.16
2022-10-05T03:18:34.898Z,81.91
2022-10-05T03:21:14.955Z,82.40
2022-10-05T03:23:59.465Z,82.97
2022-10-05T03:26:38.155Z,83.22
2022-10-05T03:29:17.161Z,82.91
2022-10-05T03:31:52.521Z,82.97
2022-10-05T03:34:31.029Z,83.94
2022-10-05T03:37:09.245Z,84.29
2022-10-05T03:39:46.367Z,84.38
2022-10-05T03:42:24.535Z,84.78
2022-10-05T03:45:01.477Z,85.21
2022-10-05T03:47:36.973Z,85.82
2022-10-05T03:50:23.982Z,86.32
2022-10-05T03:52:58.939Z,85.79
2022-10-05T03:55:32.118Z,86.03
2022-10-05T03:58:07.752Z,86.56
2022-10-05T04:00:39.984Z,86.15
2022-10-05T04:03:15.800Z,86.40
2022-10-05T04:05:50.685Z,86.15
2022-10-05T04:08:27.837Z,86.62
2022-10-05T04:11:02.678Z,87.11
2022-10-05T04:13:38.740Z,87.10
2022-10-05T04:16:14.085Z,86.86
2022-10-05T04:18:49.608Z,86.93
2022-10-05T04:21:24.761Z,86.43
2022-10-05T04:24:02.466Z,87.53
2022-10-05T04:26:38.254Z,86.93
2022-10-05T04:29:15.709Z,87.77
2022-10-05T04:31:59.236Z,87.86
2022-10-05T04:34:45.475Z,87.63
2022-10-05T04:37:22.614Z,87.81
2022-10-05T04:40:07.516Z,88.01
2022-10-05T04:42:41.381Z,88.11
2022-10-05T04:45:20.377Z,88.12
2022-10-05T04:48:10.398Z,87.30
2022-10-05T04:50:56.102Z,87.99
2022-10-05T04:53:34.242Z,88.14
2022-10-05T04:56:11.611Z,88.33
2022-10-05T04:58:58.739Z,88.43
2022-10-05T05:01:57.219Z,87.89
2022-10-05T05:04:51.771Z,87.84
2022-10-05T05:07:36.100Z,88.21
2022-10-05T05:10:34.102Z,88.28
2022-10-05T05:13:27.526Z,88.22
2022-10-05T05:16:04.719Z,88.20
2022-10-05T05:19:16.278Z,88.14
2022-10-05T05:22:01.340Z,88.03
2022-10-05T05:24:42.514Z,88.32
2022-10-05T05:27:36.743Z,87.81
2022-10-05T05:30:20.682Z,88.81
2022-10-05T05:33:09.006Z,88.92
2022-10-05T05:36:19.496Z,88.72
2022-10-05T05:39:09.666Z,88.26
2022-10-05T05:41:40.467Z,89.05
2022-10-05T05:44:22.864Z,89.03
2022-10-05T05:47:04.107Z,88.63
2022-10-05T05:49:47.125Z,88.67
2022-10-05T05:52:20.167Z,89.04
2022-10-05T05:54:54.951Z,89.19
2022-10-05T05:57:30.586Z,89.55
2022-10-05T06:00:07.045Z,89.67
2022-10-05T06:03:00.466Z,89.94
2022-10-05T06:05:34.675Z,89.90
2022-10-05T06:08:13.311Z,89.90
2022-10-05T06:10:50.769Z,89.90
2022-10-05T06:13:23.281Z,90.12
2022-10-05T06:15:57.259Z,89.77
2022-10-05T06:18:29.413Z,90.43
2022-10-05T06:21:02.911Z,90.18
2022-10-05T06:23:40.768Z,89.83
2022-10-05T06:26:22.469Z,89.93
2022-10-05T06:28:57.550Z,90.39
2022-10-05T06:31:41.981Z,90.38
2022-10-05T06:34:31.386Z,89.94
2022-10-05T06:37:03.903Z,90.05
2022-10-05T06:40:09.197Z,89.53
2022-10-05T06:43:03.600Z,89.42
2022-10-05T06:45:39.507Z,89.78
2022-10-05T06:48:36.262Z,89.07
2022-10-05T06:51:39.685Z,88.90
2022-10-05T06:54:28.197Z,88.08
2022-10-05T06:57:04.104Z,86.67
2022-10-05T06:59:41.079Z,85.31
2022-10-05T07:02:19.174Z,85.24
2022-10-05T07:05:02.226Z,84.39
2022-10-05T07:07:42.429Z,84.14
2022-10-05T07:10:27.812Z,83.29
2022-10-05T07:13:14.670Z,83.67
2022-10-05T07:15:52.643Z,83.28
2022-10-05T07:18:35.770Z,83.29
2022-10-05T07:21:14.885Z,82.24
2022-10-05T07:23:53.506Z,83.05
2022-10-05T07:26:32.190Z,83.04
2022-10-05T07:29:22.392Z,82.71
2022-10-05T07:31:59.444Z,82.03
2022-10-05T07:34:38.324Z,82.08
2022-10-05T07:37:28.578Z,82.07
2022-10-05T07:40:09.939Z,82.89
2022-10-05T07:42:59.812Z,81.75
2022-10-05T07:45:34.625Z,82.19
2022-10-05T07:48:13.640Z,83.03
2022-10-05T07:50:53.711Z,82.47
2022-10-05T07:53:29.490Z,82.18
2022-10-05T07:56:04.548Z,82.62
2022-10-05T07:58:41.420Z,81.37
2022-10-05T08:01:19.041Z,82.42
2022-10-05T08:03:57.650Z,82.66
2022-10-05T08:06:41.256Z,82.99
2022-10-05T08:09:30.823Z,82.23
2022-10-05T08:12:11.446Z,82.01
2022-10-05T08:14:49.313Z,81.40
2022-10-05T08:17:26.849Z,81.21
2022-10-05T08:20:06.104Z,81.15
2022-10-05T08:22:45.200Z,80.96
2022-10-05T08:25:22.885Z,80.52
2022-10-05T08:27:57.983Z,81.00
2022-10-05T08:30:26.996Z,81.60
2022-10-05T08:33:03.970Z,81.25
2022-10-05T08:35:39.169Z,81.01
2022-10-05T08:38:14.307Z,81.42
2022-10-05T08:41:08.189Z,81.44
2022-10-05T08:44:09.925Z,81.65
2022-10-05T08:47:06.429Z,81.66
2022-10-05T08:50:16.676Z,81.24
2022-10-05T08:53:28.618Z,81.61
2022-10-05T08:56:28.640Z,81.12
2022-10-05T08:59:20.932Z,81.35
2022-10-05T09:02:06.649Z,80.28
2022-10-05T09:04:53.118Z,81.03
2022-10-05T09:07:37.174Z,79.65
2022-10-05T09:10:48.776Z,80.53
2022-10-05T09:13:48.001Z,80.27
2022-10-05T09:16:48.589Z,79.09
2022-10-05T09:19:41.108Z,78.19
2022-10-05T09:22:16.422Z,77.65
2022-10-05T09:24:57.246Z,79.09
2022-10-05T09:27:37.473Z,78.53
2022-10-05T09:30:27.862Z,77.97
2022-10-05T09:33:34.376Z,77.46
2022-10-05T09:36:56.639Z,77.44
2022-10-05T09:40:04.502Z,76.02
2022-10-05T09:42:52.793Z,75.51
2022-10-05T09:45:57.726Z,74.57
2022-10-05T09:48:56.946Z,72.98
2022-10-05T09:52:06.116Z,74.21
2022-10-05T09:55:09.583Z,75.29
2022-10-05T09:58:14.250Z,73.62
2022-10-05T10:01:15.440Z,72.44
2022-10-05T10:04:18.578Z,73.52
2022-10-05T10:07:07.831Z,73.95
2022-10-05T10:09:47.513Z,75.11
2022-10-05T10:12:35.630Z,73.22
2022-10-05T10:15:42.950Z,73.79
2022-10-05T10:18:33.742Z,74.68
2022-10-05T10:21:23.157Z,74.36
2022-10-05T10:24:14.720Z,74.96
2022-10-05T10:27:13.002Z,75.53
2022-10-05T10:29:56.260Z,75.97
2022-10-05T10:33:04.204Z,75.53
2022-10-05T10:35:35.914Z,77.06
2022-10-05T10:38:30.951Z,77.31
2022-10-05T10:41:34.110Z,76.25
2022-10-05T10:44:39.961Z,76.56
2022-10-05T10:47:41.146Z,75.61
2022-10-05T10:50:52.105Z,76.00
2022-10-05T10:54:03.466Z,76.85
2022-10-05T10:56:51.744Z,76.30
2022-10-05T10:59:51.198Z,75.91
2022-10-05T11:02:50.644Z,76.52
2022-10-05T11:05:57.135Z,75.54
2022-10-05T11:08:55.468Z,75.46
2022-10-05T11:12:00.958Z,75.61
2022-10-05T11:14:46.483Z,76.15
2022-10-05T11:17:47.230Z,76.20
2022-10-05T11:20:43.936Z,76.45
2022-10-05T11:23:37.918Z,76.42
2022-10-05T11:26:26.042Z,75.82
2022-10-05T11:29:22.883Z,75.33
2022-10-05T11:32:24.472Z,75.68
2022-10-05T11:35:31.195Z,76.67
2022-10-05T11:38:16.785Z,76.95
2022-10-05T11:41:04.324Z,77.50
2022-10-05T11:44:03.257Z,77.14
2022-10-05T11:46:42.698Z,76.48
2022-10-05T11:49:26.380Z,75.92
2022-10-05T11:52:09.908Z,74.55
2022-10-05T11:55:09.751Z,76.02
2022-10-05T11:57:43.963Z,75.48
2022-10-05T12:00:19.227Z,75.17
2022-10-05T12:03:27.411Z,74.73
2022-10-05T12:06:17.308Z,75.17
2022-10-05T12:09:00.710Z,75.90
2022-10-05T12:11:57.707Z,75.42
2022-10-05T12:14:42.122Z,74.41
2022-10-05T12:17:21.134Z,74.29
2022-10-05T12:19:55.493Z,74.19
2022-10-05T12:22:32.495Z,73.44
2022-10-05T12:25:19.115Z,73.40
2022-10-05T12:27:50.627Z,71.99
2022-10-05T12:30:27.384Z,73.19
2022-10-05T12:33:03.386Z,72.36
2022-10-05T12:35:54.765Z,73.19
2022-10-05T12:38:31.635Z,71.34
2022-10-05T12:41:09.876Z,70.85
2022-10-05T12:43:48.946Z,71.02
2022-10-05T12:46:27.509Z,71.77
2022-10-05T12:49:23.005Z,71.16
2022-10-05T12:51:58.006Z,71.03
2022-10-05T12:54:40.352Z,71.24
2022-10-05T12:57:16.284Z,71.17
2022-10-05T12:59:52.698Z,70.95
2022-10-05T13:02:31.611Z,71.42
2022-10-05T13:05:14.883Z,70.09
2022-10-05T13:08:04.328Z,70.58
2022-10-05T13:10:39.113Z,69.94
2022-10-05T13:13:34.097Z,71.40
2022-10-05T13:16:12.096Z,71.55
2022-10-05T13:18:54.273Z,70.16
2022-10-05T13:21:30.360Z,70.38
2022-10-05T13:24:06.893Z,71.05
2022-10-05T13:26:40.665Z,70.23
2022-10-05T13:29:17.759Z,70.38
2022-10-05T13:31:51.148Z,70.58
2022-10-05T13:34:28.979Z,70.40
2022-10-05T13:37:13.055Z,71.01
2022-10-05T13:39:55.047Z,70.80
2022-10-05T13:42:35.068Z,70.03
2022-10-05T13:45:14.478Z,71.60
2022-10-05T13:48:05.616Z,70.75
2022-10-05T13:50:42.767Z,71.25
2022-10-05T13:53:23.835Z,72.26
2022-10-05T13:56:00.260Z,71.76
2022-10-05T13:58:39.677Z,71.44
2022-10-05T14:01:16.774Z,71.54
2022-10-05T14:04:17.307Z,72.61
2022-10-05T14:06:47.035Z,70.75
2022-10-05T14:09:30.199Z,71.27
2022-10-05T14:12:15.391Z,71.30
2022-10-05T14:14:49.942Z,71.18
2022-10-05T14:17:38.098Z,71.41
2022-10-05T14:20:26.552Z,71.95
2022-10-05T14:23:01.117Z,71.83
2022-10-05T14:25:31.192Z,72.18
2022-10-05T14:28:23.938Z,72.34
2022-10-05T14:31:01.383Z,72.16
2022-10-05T14:33:32.015Z,71.38
2022-10-05T14:36:02.432Z,72.43
2022-10-05T14:38:52.076Z,73.13
2022-10-05T14:41:24.855Z,72.16
2022-10-05T14:43:57.961Z,72.29
2022-10-05T14:46:32.632Z,72.88
2022-10-05T14:49:22.212Z,72.17
2022-10-05T14:51:53.325Z,72.71
2022-10-05T14:54:30.996Z,73.44
2022-10-05T14:57:11.147Z,73.36
2022-10-05T14:59:55.235Z,73.27
2022-10-05T15:02:53.418Z,72.86
2022-10-05T15:05:31.299Z,73.39
2022-10-05T15:08:14.818Z,74.06
2022-10-05T15:10:50.723Z,75.18
2022-10-05T15:13:22.903Z,74.42
2022-10-05T15:15:55.164Z,74.04
2022-10-05T15:18:34.823Z,73.57
2022-10-05T15:21:24.797Z,74.00
2022-10-05T15:23:57.402Z,75.18
2022-10-05T15:26:41.405Z,75.70
2022-10-05T15:29:25.933Z,75.04
2022-10-05T15:32:07.658Z,75.13
2022-10-05T15:34:42.750Z,75.36
2022-10-05T15:37:17.996Z,74.87
2022-10-05T15:39:53.453Z,75.38
2022-10-05T15:42:30.796Z,74.31
2022-10-05T15:45:07.694Z,74.13
2022-10-05T15:47:48.026Z,74.44
2022-10-05T15:50:23.975Z,75.38
2022-10-05T15:52:57.695Z,74.64
2022-10-05T15:55:39.491Z,75.15
2022-10-05T15:58:31.797Z,75.19
2022-10-05T16:01:08.259Z,75.33
2022-10-05T16:03:46.729Z,74.66
2022-10-05T16:06:50.413Z,75.21
2022-10-05T16:09:36.610Z,75.27
2022-10-05T16:12:18.552Z,74.76
2022-10-05T16:14:59.698Z,74.17
2022-10-05T16:17:47.881Z,74.65
2022-10-05T16:20:28.707Z,74.42
2022-10-05T16:23:05.014Z,73.46
2022-10-05T16:25:48.229Z,73.27
2022-10-05T16:28:29.680Z,74.79
2022-10-05T16:31:11.638Z,74.15
2022-10-05T16:33:54.370Z,75.10
2022-10-05T16:36:40.069Z,74.66
2022-10-05T16:39:16.669Z,74.30
2022-10-05T16:41:55.752Z,75.91
2022-10-05T16:44:35.290Z,74.80
2022-10-05T16:47:27.594Z,76.17
2022-10-05T16:50:04.092Z,76.87
2022-10-05T16:52:34.840Z,76.56
2022-10-05T16:55:13.308Z,76.09
2022-10-05T16:57:46.400Z,75.71
2022-10-05T17:00:23.563Z,74.39
2022-10-05T17:03:26.008Z,75.57
2022-10-05T17:06:19.407Z,74.94
2022-10-05T17:09:17.602Z,74.53
2022-10-05T17:12:04.078Z,75.58
2022-10-05T17:14:41.064Z,76.30
2022-10-05T17:17:38.642Z,75.40
2022-10-05T17:20:23.552Z,74.78
2022-10-05T17:22:57.781Z,74.88
2022-10-05T17:25:39.888Z,74.65
2022-10-05T17:28:25.544Z,75.20
2022-10-05T17:31:17.348Z,76.14
2022-10-05T17:34:13.358Z,75.67
2022-10-05T17:36:49.282Z,76.61
2022-10-05T17:39:20.344Z,75.51
2022-10-05T17:41:49.678Z,76.36
2022-10-05T17:44:27.188Z,75.62
2022-10-05T17:47:03.784Z,75.92
2022-10-05T17:50:13.922Z,75.46
2022-10-05T17:53:02.407Z,75.92
2022-10-05T17:56:03.193Z,76.56
2022-10-05T17:59:03.161Z,76.63
2022-10-05T18:01:36.446Z,77.85
2022-10-05T18:04:30.471Z,77.02
2022-10-05T18:07:18.408Z,77.32
2022-10-05T18:10:19.693Z,76.47
2022-10-05T18:13:10.819Z,77.47
2022-10-05T18:15:46.027Z,77.72
2022-10-05T18:18:52.812Z,77.97
2022-10-05T18:21:38.930Z,77.29
2022-10-05T18:24:49.502Z,76.48
2022-10-05T18:27:47.261Z,76.92
2022-10-05T18:30:21.868Z,77.98
2022-10-05T18:33:32.064Z,77.41
2022-10-05T18:36:45.516Z,76.43
2022-10-05T18:39:32.311Z,77.10
2022-10-05T18:42:15.327Z,77.71
2022-10-05T18:44:49.944Z,77.97
2022-10-05T18:47:28.439Z,77.55
2022-10-05T18:50:12.492Z,77.47
2022-10-05T18:52:57.307Z,78.02
2022-10-05T18:55:33.634Z,76.83
2022-10-05T18:58:15.082Z,77.24
2022-10-05T19:01:18.804Z,77.43
2022-10-05T19:04:02.058Z,76.22
2022-10-05T19:06:37.776Z,75.97
2022-10-05T19:09:21.935Z,76.41
2022-10-05T19:11:59.340Z,75.60
2022-10-05T19:14:39.391Z,75.65
2022-10-05T19:17:24.126Z,77.07
2022-10-05T19:20:17.958Z,76.84
2022-10-05T19:23:02.136Z,76.10
2022-10-05T19:25:38.908Z,77.17
2022-10-05T19:28:23.134Z,76.91
2022-10-05T19:31:19.244Z,78.38
2022-10-05T19:34:04.683Z,78.55
2022-10-05T19:36:46.157Z,78.33
2022-10-05T19:39:24.499Z,78.41
2022-10-05T19:42:06.762Z,77.95
2022-10-05T19:44:54.236Z,77.25
2022-10-05T19:47:38.886Z,73.81
2022-10-05T19:50:28.070Z,71.66
2022-10-05T19:53:07.277Z,71.10
2022-10-05T19:55:39.528Z,71.74
2022-10-05T19:58:21.485Z,71.45
2022-10-05T20:00:59.226Z,71.06
2022-10-05T20:03:30.204Z,70.80
2022-10-05T20:06:00.583Z,71.42
2022-10-05T20:08:39.269Z,72.01
2022-10-05T20:11:11.093Z,70.70
2022-10-05T20:13:43.571Z,71.78
2022-10-05T20:16:39.618Z,71.30
2022-10-05T20:19:51.232Z,71.53
2022-10-05T20:22:35.478Z,72.27
2022-10-05T20:25:07.903Z,71.96
2022-10-05T20:27:48.870Z,71.30
2022-10-05T20:30:21.744Z,72.04
2022-10-05T20:32:51.666Z,73.18
2022-10-05T20:35:22.945Z,71.85
2022-10-05T20:37:52.073Z,72.78
2022-10-05T20:40:21.318Z,73.51
2022-10-05T20:42:50.330Z,72.72
2022-10-05T20:45:20.726Z,72.48
2022-10-05T20:47:52.941Z,72.80
2022-10-05T20:50:22.214Z,73.47
2022-10-05T20:52:51.591Z,73.50
2022-10-05T20:55:20.845Z,73.15
2022-10-05T20:57:49.816Z,74.01
2022-10-05T21:00:20.369Z,73.13
2022-10-05T21:02:49.485Z,73.30
2022-10-05T21:05:18.735Z,73.95
2022-10-05T21:07:47.717Z,74.47
2022-10-05T21:10:17.096Z,74.27
2022-10-05T21:12:46.095Z,75.46
2022-10-05T21:15:15.102Z,74.65
2022-10-05T21:17:45.411Z,75.23
2022-10-05T21:20:14.757Z,75.78
2022-10-05T21:22:44.008Z,75.06
2022-10-05T21:25:12.953Z,75.59
2022-10-05T21:27:41.991Z,76.24
2022-10-05T21:30:11.759Z,75.34
2022-10-05T21:32:44.419Z,75.59
2022-10-05T21:35:15.468Z,75.36
2022-10-05T21:37:44.451Z,75.37
2022-10-05T21:40:13.417Z,75.74
2022-10-05T21:42:42.696Z,75.91
2022-10-05T21:45:12.055Z,75.51
2022-10-05T21:47:41.679Z,76.41
2022-10-05T21:50:11.293Z,75.10
2022-10-05T21:52:41.997Z,75.17
2022-10-05T21:55:12.303Z,76.12
2022-10-05T21:57:41.440Z,76.02
2022-10-05T22:00:11.515Z,76.20
2022-10-05T22:02:40.525Z,76.02
2022-10-05T22:05:10.246Z,76.87
2022-10-05T22:07:39.392Z,75.90
2022-10-05T22:10:10.778Z,76.71
2022-10-05T22:12:41.531Z,77.01
2022-10-05T22:15:11.197Z,77.35
2022-10-05T22:17:42.202Z,77.20
2022-10-05T22:20:13.954Z,76.96
2022-10-05T22:22:42.929Z,76.58
2022-10-05T22:25:13.142Z,76.37
2022-10-05T22:27:42.891Z,75.87
2022-10-05T22:30:14.725Z,75.66
2022-10-05T22:32:43.753Z,74.91
2022-10-05T22:35:12.838Z,74.33
2022-10-05T22:37:41.822Z,75.24
2022-10-05T22:40:12.636Z,74.84
2022-10-05T22:42:41.733Z,74.29
2022-10-05T22:45:10.787Z,74.75
2022-10-05T22:47:39.779Z,75.06
2022-10-05T22:50:10.080Z,74.44
2022-10-05T22:52:39.025Z,76.17
2022-10-05T22:55:09.079Z,78.41
2022-10-05T22:57:43.798Z,80.30
2022-10-05T23:00:13.935Z,82.37
2022-10-05T23:02:45.258Z,81.80
2022-10-05T23:05:17.008Z,82.66
2022-10-05T23:07:47.495Z,80.37
2022-10-05T23:10:19.174Z,79.78
2022-10-05T23:13:00.570Z,78.73
2022-10-05T23:15:30.184Z,77.82
2022-10-05T23:17:59.167Z,77.54
2022-10-05T23:20:28.178Z,77.64
2022-10-05T23:22:57.117Z,79.27
2022-10-05T23:25:26.310Z,78.22
2022-10-05T23:27:56.612Z,80.02
2022-10-05T23:30:25.618Z,80.51
2022-10-05T23:32:54.540Z,80.71
2022-10-05T23:35:23.500Z,81.33
2022-10-05T23:37:52.427Z,81.05
2022-10-05T23:40:21.523Z,81.12
2022-10-05T23:42:50.503Z,81.78
2022-10-05T23:45:20.783Z,81.27
2022-10-05T23:47:49.717Z,81.71
2022-10-05T23:50:20.511Z,82.92
2022-10-05T23:52:49.482Z,82.56
2022-10-05T23:55:18.549Z,81.87
2022-10-05T23:57:47.476Z,81.05
